sensor_id;sensor_type;location;lat;lon;timestamp;P1;durP1;ratioP1;P2;durP2;ratioP2
38182;SDS011;23991;52.430;10.586;2023-12-07T00:00:37;40.50;;;23.17;;
38182;SDS011;23991;52.430;10.586;2023-12-07T00:03:02;42.70;;;23.55;;
38182;SDS011;23991;52.430;10.586;2023-12-07T00:05:31;43.17;;;25.27;;
38182;SDS011;23991;52.430;10.586;2023-12-07T00:07:57;46.25;;;24.00;;
38182;SDS011;23991;52.430;10.586;2023-12-07T00:10:23;45.00;;;24.42;;
38182;SDS011;23991;52.430;10.586;2023-12-07T00:12:49;42.55;;;24.25;;
38182;SDS011;23991;52.430;10.586;2023-12-07T00:15:14;42.55;;;22.67;;
38182;SDS011;23991;52.430;10.586;2023-12-07T00:17:40;41.88;;;24.73;;
38182;SDS011;23991;52.430;10.586;2023-12-07T00:20:06;41.97;;;22.95;;
38182;SDS011;23991;52.430;10.586;2023-12-07T00:22:33;40.63;;;22.58;;
38182;SDS011;23991;52.430;10.586;2023-12-07T00:24:58;47.30;;;23.92;;
38182;SDS011;23991;52.430;10.586;2023-12-07T00:27:24;41.70;;;23.02;;
38182;SDS011;23991;52.430;10.586;2023-12-07T00:29:49;43.13;;;24.40;;
38182;SDS011;23991;52.430;10.586;2023-12-07T00:32:15;43.22;;;24.67;;
38182;SDS011;23991;52.430;10.586;2023-12-07T00:34:41;44.67;;;23.92;;
38182;SDS011;23991;52.430;10.586;2023-12-07T00:37:06;45.97;;;23.42;;
38182;SDS011;23991;52.430;10.586;2023-12-07T00:39:32;43.67;;;24.15;;
38182;SDS011;23991;52.430;10.586;2023-12-07T00:41:58;41.70;;;21.88;;
38182;SDS011;23991;52.430;10.586;2023-12-07T00:44:23;49.08;;;23.63;;
38182;SDS011;23991;52.430;10.586;2023-12-07T00:46:49;47.38;;;24.42;;
38182;SDS011;23991;52.430;10.586;2023-12-07T00:49:15;44.80;;;23.60;;
38182;SDS011;23991;52.430;10.586;2023-12-07T00:51:41;44.95;;;22.48;;
38182;SDS011;23991;52.430;10.586;2023-12-07T00:54:06;46.40;;;23.38;;
38182;SDS011;23991;52.430;10.586;2023-12-07T00:56:32;45.90;;;24.27;;
38182;SDS011;23991;52.430;10.586;2023-12-07T00:58:59;49.33;;;23.33;;
38182;SDS011;23991;52.430;10.586;2023-12-07T01:01:24;41.35;;;23.88;;
38182;SDS011;23991;52.430;10.586;2023-12-07T01:03:50;47.03;;;22.77;;
38182;SDS011;23991;52.430;10.586;2023-12-07T01:06:15;44.78;;;24.15;;
38182;SDS011;23991;52.430;10.586;2023-12-07T01:08:41;47.67;;;23.00;;
38182;SDS011;23991;52.430;10.586;2023-12-07T01:11:08;46.17;;;23.83;;
38182;SDS011;23991;52.430;10.586;2023-12-07T01:13:34;49.35;;;24.85;;
38182;SDS011;23991;52.430;10.586;2023-12-07T01:16:01;49.83;;;25.45;;
38182;SDS011;23991;52.430;10.586;2023-12-07T01:18:26;42.58;;;22.30;;
38182;SDS011;23991;52.430;10.586;2023-12-07T01:20:52;39.20;;;21.08;;
38182;SDS011;23991;52.430;10.586;2023-12-07T01:23:18;46.25;;;22.90;;
38182;SDS011;23991;52.430;10.586;2023-12-07T01:25:43;47.38;;;22.88;;
38182;SDS011;23991;52.430;10.586;2023-12-07T01:28:09;47.90;;;24.08;;
38182;SDS011;23991;52.430;10.586;2023-12-07T01:30:34;43.33;;;22.85;;
38182;SDS011;23991;52.430;10.586;2023-12-07T01:33:01;44.13;;;22.20;;
38182;SDS011;23991;52.430;10.586;2023-12-07T01:35:27;42.28;;;22.67;;
38182;SDS011;23991;52.430;10.586;2023-12-07T01:37:53;43.92;;;22.10;;
38182;SDS011;23991;52.430;10.586;2023-12-07T01:40:19;45.85;;;23.27;;
38182;SDS011;23991;52.430;10.586;2023-12-07T01:42:54;46.83;;;22.13;;
38182;SDS011;23991;52.430;10.586;2023-12-07T01:45:20;39.78;;;21.88;;
38182;SDS011;23991;52.430;10.586;2023-12-07T01:47:46;38.83;;;22.05;;
38182;SDS011;23991;52.430;10.586;2023-12-07T01:50:13;43.58;;;22.10;;
38182;SDS011;23991;52.430;10.586;2023-12-07T01:52:45;42.47;;;21.90;;
38182;SDS011;23991;52.430;10.586;2023-12-07T01:55:13;44.95;;;23.77;;
38182;SDS011;23991;52.430;10.586;2023-12-07T01:57:40;38.47;;;21.40;;
38182;SDS011;23991;52.430;10.586;2023-12-07T02:00:08;40.88;;;21.60;;
38182;SDS011;23991;52.430;10.586;2023-12-07T02:02:34;40.60;;;21.55;;
38182;SDS011;23991;52.430;10.586;2023-12-07T02:05:01;37.90;;;20.63;;
38182;SDS011;23991;52.430;10.586;2023-12-07T02:07:27;40.85;;;22.08;;
38182;SDS011;23991;52.430;10.586;2023-12-07T02:09:53;43.85;;;21.55;;
38182;SDS011;23991;52.430;10.586;2023-12-07T02:12:19;44.50;;;22.65;;
38182;SDS011;23991;52.430;10.586;2023-12-07T02:14:45;41.58;;;23.00;;
38182;SDS011;23991;52.430;10.586;2023-12-07T02:17:14;39.20;;;21.67;;
38182;SDS011;23991;52.430;10.586;2023-12-07T02:22:42;41.13;;;20.90;;
38182;SDS011;23991;52.430;10.586;2023-12-07T02:25:10;41.85;;;22.35;;
38182;SDS011;23991;52.430;10.586;2023-12-07T02:27:40;37.65;;;21.15;;
38182;SDS011;23991;52.430;10.586;2023-12-07T02:30:08;41.45;;;22.10;;
38182;SDS011;23991;52.430;10.586;2023-12-07T02:32:38;39.05;;;22.50;;
38182;SDS011;23991;52.430;10.586;2023-12-07T02:35:06;38.17;;;22.13;;
38182;SDS011;23991;52.430;10.586;2023-12-07T02:37:35;37.95;;;21.73;;
38182;SDS011;23991;52.430;10.586;2023-12-07T02:40:06;42.75;;;23.00;;
38182;SDS011;23991;52.430;10.586;2023-12-07T02:45:03;36.63;;;20.98;;
38182;SDS011;23991;52.430;10.586;2023-12-07T02:47:29;40.15;;;22.88;;
38182;SDS011;23991;52.430;10.586;2023-12-07T02:49:55;42.63;;;23.25;;
38182;SDS011;23991;52.430;10.586;2023-12-07T02:52:20;43.13;;;23.15;;
38182;SDS011;23991;52.430;10.586;2023-12-07T02:54:46;42.33;;;21.92;;
38182;SDS011;23991;52.430;10.586;2023-12-07T02:57:13;41.25;;;23.30;;
38182;SDS011;23991;52.430;10.586;2023-12-07T02:59:39;44.22;;;24.50;;
38182;SDS011;23991;52.430;10.586;2023-12-07T03:02:05;43.97;;;24.60;;
38182;SDS011;23991;52.430;10.586;2023-12-07T03:04:31;39.92;;;23.20;;
38182;SDS011;23991;52.430;10.586;2023-12-07T03:06:57;44.28;;;23.15;;
38182;SDS011;23991;52.430;10.586;2023-12-07T03:09:23;42.38;;;23.88;;
38182;SDS011;23991;52.430;10.586;2023-12-07T03:11:49;39.95;;;23.00;;
38182;SDS011;23991;52.430;10.586;2023-12-07T03:14:15;41.03;;;22.85;;
38182;SDS011;23991;52.430;10.586;2023-12-07T03:16:41;40.13;;;21.67;;
38182;SDS011;23991;52.430;10.586;2023-12-07T03:19:06;37.92;;;22.45;;
38182;SDS011;23991;52.430;10.586;2023-12-07T03:21:32;39.78;;;20.98;;
38182;SDS011;23991;52.430;10.586;2023-12-07T03:23:57;36.08;;;22.10;;
38182;SDS011;23991;52.430;10.586;2023-12-07T03:26:23;38.67;;;22.50;;
38182;SDS011;23991;52.430;10.586;2023-12-07T03:28:49;38.15;;;22.33;;
38182;SDS011;23991;52.430;10.586;2023-12-07T03:31:14;36.47;;;21.55;;
38182;SDS011;23991;52.430;10.586;2023-12-07T03:33:43;39.78;;;22.05;;
38182;SDS011;23991;52.430;10.586;2023-12-07T03:36:12;38.35;;;21.13;;
38182;SDS011;23991;52.430;10.586;2023-12-07T03:38:38;40.33;;;21.00;;
38182;SDS011;23991;52.430;10.586;2023-12-07T03:41:03;34.78;;;20.75;;
38182;SDS011;23991;52.430;10.586;2023-12-07T03:43:29;37.08;;;22.00;;
38182;SDS011;23991;52.430;10.586;2023-12-07T03:45:54;39.33;;;22.58;;
38182;SDS011;23991;52.430;10.586;2023-12-07T03:48:20;37.45;;;21.20;;
38182;SDS011;23991;52.430;10.586;2023-12-07T03:50:46;37.63;;;22.50;;
38182;SDS011;23991;52.430;10.586;2023-12-07T03:53:11;39.22;;;21.48;;
38182;SDS011;23991;52.430;10.586;2023-12-07T03:55:37;39.30;;;23.90;;
38182;SDS011;23991;52.430;10.586;2023-12-07T03:58:04;37.70;;;21.30;;
38182;SDS011;23991;52.430;10.586;2023-12-07T04:00:30;33.10;;;20.73;;
38182;SDS011;23991;52.430;10.586;2023-12-07T04:02:57;34.47;;;20.65;;
38182;SDS011;23991;52.430;10.586;2023-12-07T04:05:22;35.47;;;21.35;;
38182;SDS011;23991;52.430;10.586;2023-12-07T04:07:48;34.65;;;20.98;;
38182;SDS011;23991;52.430;10.586;2023-12-07T04:10:14;33.58;;;20.08;;
38182;SDS011;23991;52.430;10.586;2023-12-07T04:12:40;33.97;;;20.13;;
38182;SDS011;23991;52.430;10.586;2023-12-07T04:15:09;31.85;;;19.70;;
38182;SDS011;23991;52.430;10.586;2023-12-07T04:17:34;23.10;;;14.33;;
38182;SDS011;23991;52.430;10.586;2023-12-07T04:20:00;34.70;;;20.67;;
38182;SDS011;23991;52.430;10.586;2023-12-07T04:22:26;34.58;;;20.08;;
38182;SDS011;23991;52.430;10.586;2023-12-07T04:24:51;32.72;;;20.10;;
38182;SDS011;23991;52.430;10.586;2023-12-07T04:27:17;30.38;;;19.33;;
38182;SDS011;23991;52.430;10.586;2023-12-07T04:29:42;34.88;;;20.98;;
38182;SDS011;23991;52.430;10.586;2023-12-07T04:32:08;32.50;;;20.58;;
38182;SDS011;23991;52.430;10.586;2023-12-07T04:34:34;34.03;;;20.33;;
38182;SDS011;23991;52.430;10.586;2023-12-07T04:37:00;34.90;;;20.33;;
38182;SDS011;23991;52.430;10.586;2023-12-07T04:39:25;33.95;;;19.98;;
38182;SDS011;23991;52.430;10.586;2023-12-07T04:41:51;34.42;;;20.35;;
38182;SDS011;23991;52.430;10.586;2023-12-07T04:44:16;38.13;;;20.95;;
38182;SDS011;23991;52.430;10.586;2023-12-07T04:46:42;32.65;;;19.20;;
38182;SDS011;23991;52.430;10.586;2023-12-07T04:49:08;34.70;;;21.02;;
38182;SDS011;23991;52.430;10.586;2023-12-07T04:51:37;33.92;;;19.85;;
38182;SDS011;23991;52.430;10.586;2023-12-07T04:54:02;36.90;;;20.95;;
38182;SDS011;23991;52.430;10.586;2023-12-07T04:56:28;34.30;;;20.80;;
38182;SDS011;23991;52.430;10.586;2023-12-07T04:58:54;35.05;;;19.77;;
38182;SDS011;23991;52.430;10.586;2023-12-07T05:01:19;34.50;;;20.38;;
38182;SDS011;23991;52.430;10.586;2023-12-07T05:03:45;33.55;;;20.15;;
38182;SDS011;23991;52.430;10.586;2023-12-07T05:06:11;36.30;;;20.67;;
38182;SDS011;23991;52.430;10.586;2023-12-07T05:08:37;36.45;;;20.92;;
38182;SDS011;23991;52.430;10.586;2023-12-07T05:11:04;35.25;;;20.95;;
38182;SDS011;23991;52.430;10.586;2023-12-07T05:13:30;34.22;;;21.10;;
38182;SDS011;23991;52.430;10.586;2023-12-07T05:15:57;35.05;;;21.45;;
38182;SDS011;23991;52.430;10.586;2023-12-07T05:18:22;32.50;;;20.30;;
38182;SDS011;23991;52.430;10.586;2023-12-07T05:20:48;36.95;;;21.17;;
38182;SDS011;23991;52.430;10.586;2023-12-07T05:23:14;34.72;;;20.60;;
38182;SDS011;23991;52.430;10.586;2023-12-07T05:25:40;33.17;;;20.23;;
38182;SDS011;23991;52.430;10.586;2023-12-07T05:28:05;37.88;;;21.77;;
38182;SDS011;23991;52.430;10.586;2023-12-07T05:30:31;37.45;;;20.83;;
38182;SDS011;23991;52.430;10.586;2023-12-07T05:32:57;35.95;;;20.58;;
38182;SDS011;23991;52.430;10.586;2023-12-07T05:35:22;39.80;;;22.27;;
38182;SDS011;23991;52.430;10.586;2023-12-07T05:37:48;35.67;;;20.55;;
38182;SDS011;23991;52.430;10.586;2023-12-07T05:40:14;37.33;;;21.13;;
38182;SDS011;23991;52.430;10.586;2023-12-07T05:42:41;34.97;;;20.90;;
38182;SDS011;23991;52.430;10.586;2023-12-07T05:45:06;36.80;;;19.75;;
38182;SDS011;23991;52.430;10.586;2023-12-07T05:47:35;35.97;;;20.00;;
38182;SDS011;23991;52.430;10.586;2023-12-07T05:50:01;34.35;;;21.00;;
38182;SDS011;23991;52.430;10.586;2023-12-07T05:52:28;34.03;;;20.73;;
38182;SDS011;23991;52.430;10.586;2023-12-07T05:54:54;34.22;;;20.73;;
38182;SDS011;23991;52.430;10.586;2023-12-07T05:57:20;41.08;;;21.20;;
38182;SDS011;23991;52.430;10.586;2023-12-07T05:59:45;34.88;;;19.98;;
38182;SDS011;23991;52.430;10.586;2023-12-07T06:02:11;37.25;;;21.73;;
38182;SDS011;23991;52.430;10.586;2023-12-07T06:04:37;35.58;;;20.85;;
38182;SDS011;23991;52.430;10.586;2023-12-07T06:07:09;36.58;;;21.58;;
38182;SDS011;23991;52.430;10.586;2023-12-07T06:09:35;33.67;;;19.42;;
38182;SDS011;23991;52.430;10.586;2023-12-07T06:12:00;33.67;;;19.92;;
38182;SDS011;23991;52.430;10.586;2023-12-07T06:14:26;35.22;;;19.90;;
38182;SDS011;23991;52.430;10.586;2023-12-07T06:16:51;34.83;;;20.83;;
38182;SDS011;23991;52.430;10.586;2023-12-07T06:19:20;36.25;;;20.80;;
38182;SDS011;23991;52.430;10.586;2023-12-07T06:21:46;35.13;;;20.60;;
38182;SDS011;23991;52.430;10.586;2023-12-07T06:24:12;36.95;;;21.48;;
38182;SDS011;23991;52.430;10.586;2023-12-07T06:26:39;32.90;;;19.77;;
38182;SDS011;23991;52.430;10.586;2023-12-07T06:29:05;34.65;;;20.25;;
38182;SDS011;23991;52.430;10.586;2023-12-07T06:31:32;34.20;;;20.55;;
38182;SDS011;23991;52.430;10.586;2023-12-07T06:33:58;36.70;;;19.98;;
38182;SDS011;23991;52.430;10.586;2023-12-07T06:36:25;34.35;;;19.20;;
38182;SDS011;23991;52.430;10.586;2023-12-07T06:38:52;32.40;;;18.98;;
38182;SDS011;23991;52.430;10.586;2023-12-07T06:41:18;37.88;;;19.60;;
38182;SDS011;23991;52.430;10.586;2023-12-07T06:43:43;34.17;;;19.85;;
38182;SDS011;23991;52.430;10.586;2023-12-07T06:46:11;33.40;;;19.33;;
38182;SDS011;23991;52.430;10.586;2023-12-07T06:48:37;32.42;;;17.98;;
38182;SDS011;23991;52.430;10.586;2023-12-07T06:51:03;42.70;;;19.90;;
38182;SDS011;23991;52.430;10.586;2023-12-07T06:53:29;35.67;;;19.45;;
38182;SDS011;23991;52.430;10.586;2023-12-07T06:55:56;32.20;;;18.70;;
38182;SDS011;23991;52.430;10.586;2023-12-07T06:58:22;31.65;;;19.90;;
38182;SDS011;23991;52.430;10.586;2023-12-07T07:00:48;30.65;;;18.35;;
38182;SDS011;23991;52.430;10.586;2023-12-07T07:03:14;35.60;;;18.77;;
38182;SDS011;23991;52.430;10.586;2023-12-07T07:05:43;31.27;;;18.60;;
38182;SDS011;23991;52.430;10.586;2023-12-07T07:08:09;35.00;;;19.75;;
38182;SDS011;23991;52.430;10.586;2023-12-07T07:10:34;28.08;;;17.40;;
38182;SDS011;23991;52.430;10.586;2023-12-07T07:13:01;34.72;;;19.15;;
38182;SDS011;23991;52.430;10.586;2023-12-07T07:15:29;32.60;;;18.77;;
38182;SDS011;23991;52.430;10.586;2023-12-07T07:17:58;33.55;;;19.13;;
38182;SDS011;23991;52.430;10.586;2023-12-07T07:20:24;33.40;;;20.33;;
38182;SDS011;23991;52.430;10.586;2023-12-07T07:22:50;32.15;;;18.75;;
38182;SDS011;23991;52.430;10.586;2023-12-07T07:25:16;31.80;;;19.20;;
38182;SDS011;23991;52.430;10.586;2023-12-07T07:27:44;34.22;;;18.35;;
38182;SDS011;23991;52.430;10.586;2023-12-07T07:30:10;31.65;;;18.88;;
38182;SDS011;23991;52.430;10.586;2023-12-07T07:32:36;30.05;;;18.67;;
38182;SDS011;23991;52.430;10.586;2023-12-07T07:35:02;29.98;;;17.75;;
38182;SDS011;23991;52.430;10.586;2023-12-07T07:37:28;30.02;;;18.13;;
38182;SDS011;23991;52.430;10.586;2023-12-07T07:39:53;30.33;;;18.67;;
38182;SDS011;23991;52.430;10.586;2023-12-07T07:42:19;31.33;;;18.98;;
38182;SDS011;23991;52.430;10.586;2023-12-07T07:44:45;29.23;;;18.40;;
38182;SDS011;23991;52.430;10.586;2023-12-07T07:47:10;34.53;;;18.80;;
38182;SDS011;23991;52.430;10.586;2023-12-07T07:49:36;31.98;;;19.13;;
38182;SDS011;23991;52.430;10.586;2023-12-07T07:52:02;34.35;;;19.00;;
38182;SDS011;23991;52.430;10.586;2023-12-07T07:54:29;30.48;;;18.48;;
38182;SDS011;23991;52.430;10.586;2023-12-07T07:56:55;34.90;;;20.35;;
38182;SDS011;23991;52.430;10.586;2023-12-07T07:59:21;33.10;;;21.10;;
38182;SDS011;23991;52.430;10.586;2023-12-07T08:01:47;31.75;;;19.15;;
38182;SDS011;23991;52.430;10.586;2023-12-07T08:04:12;30.40;;;18.83;;
38182;SDS011;23991;52.430;10.586;2023-12-07T08:06:38;29.98;;;19.20;;
38182;SDS011;23991;52.430;10.586;2023-12-07T08:09:04;32.15;;;19.15;;
38182;SDS011;23991;52.430;10.586;2023-12-07T08:11:30;32.60;;;18.98;;
38182;SDS011;23991;52.430;10.586;2023-12-07T08:13:58;30.30;;;18.33;;
38182;SDS011;23991;52.430;10.586;2023-12-07T08:16:23;29.67;;;18.83;;
38182;SDS011;23991;52.430;10.586;2023-12-07T08:18:49;29.23;;;18.63;;
38182;SDS011;23991;52.430;10.586;2023-12-07T08:21:21;28.80;;;17.42;;
38182;SDS011;23991;52.430;10.586;2023-12-07T08:23:50;28.20;;;18.75;;
38182;SDS011;23991;52.430;10.586;2023-12-07T08:26:16;29.17;;;19.80;;
38182;SDS011;23991;52.430;10.586;2023-12-07T08:28:42;29.80;;;18.75;;
38182;SDS011;23991;52.430;10.586;2023-12-07T08:31:08;27.38;;;17.50;;
38182;SDS011;23991;52.430;10.586;2023-12-07T08:33:33;26.70;;;17.63;;
38182;SDS011;23991;52.430;10.586;2023-12-07T08:35:59;29.50;;;19.10;;
38182;SDS011;23991;52.430;10.586;2023-12-07T08:38:26;27.45;;;18.00;;
38182;SDS011;23991;52.430;10.586;2023-12-07T08:40:52;26.52;;;17.35;;
38182;SDS011;23991;52.430;10.586;2023-12-07T08:43:21;27.48;;;18.08;;
38182;SDS011;23991;52.430;10.586;2023-12-07T08:45:52;26.52;;;16.27;;
38182;SDS011;23991;52.430;10.586;2023-12-07T08:48:19;27.33;;;17.17;;
38182;SDS011;23991;52.430;10.586;2023-12-07T08:50:45;24.48;;;16.63;;
38182;SDS011;23991;52.430;10.586;2023-12-07T08:53:11;26.60;;;17.10;;
38182;SDS011;23991;52.430;10.586;2023-12-07T08:55:37;25.48;;;17.23;;
38182;SDS011;23991;52.430;10.586;2023-12-07T08:58:03;25.83;;;17.08;;
38182;SDS011;23991;52.430;10.586;2023-12-07T09:00:34;28.05;;;17.13;;
38182;SDS011;23991;52.430;10.586;2023-12-07T09:03:00;26.10;;;16.27;;
38182;SDS011;23991;52.430;10.586;2023-12-07T09:05:27;25.63;;;16.23;;
38182;SDS011;23991;52.430;10.586;2023-12-07T09:07:52;26.05;;;15.88;;
38182;SDS011;23991;52.430;10.586;2023-12-07T09:10:18;28.13;;;16.88;;
38182;SDS011;23991;52.430;10.586;2023-12-07T09:12:44;24.48;;;16.75;;
38182;SDS011;23991;52.430;10.586;2023-12-07T09:15:10;25.50;;;18.05;;
38182;SDS011;23991;52.430;10.586;2023-12-07T09:17:37;27.52;;;16.73;;
38182;SDS011;23991;52.430;10.586;2023-12-07T09:20:04;23.70;;;16.13;;
38182;SDS011;23991;52.430;10.586;2023-12-07T09:22:41;25.75;;;16.50;;
38182;SDS011;23991;52.430;10.586;2023-12-07T09:25:11;27.98;;;16.33;;
38182;SDS011;23991;52.430;10.586;2023-12-07T09:27:38;24.67;;;17.23;;
38182;SDS011;23991;52.430;10.586;2023-12-07T09:30:07;25.23;;;17.67;;
38182;SDS011;23991;52.430;10.586;2023-12-07T09:32:37;30.85;;;20.40;;
38182;SDS011;23991;52.430;10.586;2023-12-07T09:35:04;30.48;;;20.30;;
38182;SDS011;23991;52.430;10.586;2023-12-07T09:37:32;28.80;;;18.50;;
38182;SDS011;23991;52.430;10.586;2023-12-07T09:39:58;26.52;;;17.10;;
38182;SDS011;23991;52.430;10.586;2023-12-07T09:42:24;27.77;;;16.77;;
38182;SDS011;23991;52.430;10.586;2023-12-07T09:44:50;22.65;;;15.63;;
38182;SDS011;23991;52.430;10.586;2023-12-07T09:47:16;22.23;;;15.18;;
38182;SDS011;23991;52.430;10.586;2023-12-07T09:49:42;22.38;;;14.70;;
38182;SDS011;23991;52.430;10.586;2023-12-07T09:52:08;22.65;;;14.55;;
38182;SDS011;23991;52.430;10.586;2023-12-07T09:54:35;22.55;;;14.00;;
38182;SDS011;23991;52.430;10.586;2023-12-07T09:57:05;20.00;;;14.02;;
38182;SDS011;23991;52.430;10.586;2023-12-07T09:59:31;20.90;;;14.10;;
38182;SDS011;23991;52.430;10.586;2023-12-07T10:01:57;21.42;;;14.15;;
38182;SDS011;23991;52.430;10.586;2023-12-07T10:04:22;19.15;;;13.82;;
38182;SDS011;23991;52.430;10.586;2023-12-07T10:06:51;22.33;;;14.82;;
38182;SDS011;23991;52.430;10.586;2023-12-07T10:09:17;19.38;;;14.25;;
38182;SDS011;23991;52.430;10.586;2023-12-07T10:11:49;21.20;;;14.27;;
38182;SDS011;23991;52.430;10.586;2023-12-07T10:14:26;20.63;;;14.30;;
38182;SDS011;23991;52.430;10.586;2023-12-07T10:16:53;20.60;;;13.55;;
38182;SDS011;23991;52.430;10.586;2023-12-07T10:19:22;15.77;;;10.30;;
38182;SDS011;23991;52.430;10.586;2023-12-07T10:21:49;19.80;;;13.93;;
38182;SDS011;23991;52.430;10.586;2023-12-07T10:24:15;19.02;;;12.98;;
38182;SDS011;23991;52.430;10.586;2023-12-07T10:26:42;23.88;;;14.30;;
38182;SDS011;23991;52.430;10.586;2023-12-07T10:29:09;18.50;;;12.85;;
38182;SDS011;23991;52.430;10.586;2023-12-07T10:31:35;17.75;;;13.00;;
38182;SDS011;23991;52.430;10.586;2023-12-07T10:34:01;18.13;;;12.98;;
38182;SDS011;23991;52.430;10.586;2023-12-07T10:36:27;20.73;;;14.50;;
38182;SDS011;23991;52.430;10.586;2023-12-07T10:38:53;20.98;;;13.40;;
38182;SDS011;23991;52.430;10.586;2023-12-07T10:41:20;18.67;;;12.68;;
38182;SDS011;23991;52.430;10.586;2023-12-07T10:43:48;20.15;;;13.07;;
38182;SDS011;23991;52.430;10.586;2023-12-07T10:46:16;19.30;;;13.45;;
38182;SDS011;23991;52.430;10.586;2023-12-07T10:48:44;18.83;;;12.70;;
38182;SDS011;23991;52.430;10.586;2023-12-07T10:51:13;16.60;;;12.23;;
38182;SDS011;23991;52.430;10.586;2023-12-07T10:53:48;20.83;;;12.93;;
38182;SDS011;23991;52.430;10.586;2023-12-07T10:56:21;19.10;;;12.98;;
38182;SDS011;23991;52.430;10.586;2023-12-07T10:59:13;20.70;;;12.30;;
38182;SDS011;23991;52.430;10.586;2023-12-07T11:01:39;17.70;;;13.23;;
38182;SDS011;23991;52.430;10.586;2023-12-07T11:04:05;16.55;;;12.23;;
38182;SDS011;23991;52.430;10.586;2023-12-07T11:06:32;15.95;;;11.27;;
38182;SDS011;23991;52.430;10.586;2023-12-07T11:09:00;20.73;;;12.10;;
38182;SDS011;23991;52.430;10.586;2023-12-07T11:11:48;16.42;;;12.10;;
38182;SDS011;23991;52.430;10.586;2023-12-07T11:14:17;18.17;;;12.00;;
38182;SDS011;23991;52.430;10.586;2023-12-07T11:16:44;15.43;;;11.25;;
38182;SDS011;23991;52.430;10.586;2023-12-07T11:22:00;19.58;;;14.00;;
38182;SDS011;23991;52.430;10.586;2023-12-07T11:24:36;19.83;;;13.45;;
38182;SDS011;23991;52.430;10.586;2023-12-07T11:27:01;18.27;;;12.70;;
38182;SDS011;23991;52.430;10.586;2023-12-07T11:29:28;18.38;;;11.43;;
38182;SDS011;23991;52.430;10.586;2023-12-07T11:31:55;18.60;;;12.90;;
38182;SDS011;23991;52.430;10.586;2023-12-07T11:34:38;21.13;;;16.17;;
38182;SDS011;23991;52.430;10.586;2023-12-07T11:37:05;20.48;;;12.65;;
38182;SDS011;23991;52.430;10.586;2023-12-07T11:39:39;18.85;;;11.90;;
38182;SDS011;23991;52.430;10.586;2023-12-07T11:42:15;16.47;;;11.20;;
38182;SDS011;23991;52.430;10.586;2023-12-07T11:44:42;13.93;;;10.70;;
38182;SDS011;23991;52.430;10.586;2023-12-07T11:47:15;14.45;;;10.07;;
38182;SDS011;23991;52.430;10.586;2023-12-07T11:49:42;19.70;;;11.75;;
38182;SDS011;23991;52.430;10.586;2023-12-07T11:54:46;17.45;;;11.95;;
38182;SDS011;23991;52.430;10.586;2023-12-07T11:57:14;18.70;;;11.02;;
38182;SDS011;23991;52.430;10.586;2023-12-07T11:59:41;15.68;;;11.05;;
38182;SDS011;23991;52.430;10.586;2023-12-07T12:02:09;14.90;;;10.88;;
38182;SDS011;23991;52.430;10.586;2023-12-07T12:04:38;17.63;;;10.93;;
38182;SDS011;23991;52.430;10.586;2023-12-07T12:07:06;17.13;;;10.15;;
38182;SDS011;23991;52.430;10.586;2023-12-07T12:09:33;15.05;;;11.48;;
38182;SDS011;23991;52.430;10.586;2023-12-07T12:11:59;14.90;;;10.25;;
38182;SDS011;23991;52.430;10.586;2023-12-07T12:14:25;14.05;;;10.60;;
38182;SDS011;23991;52.430;10.586;2023-12-07T12:16:52;15.35;;;11.40;;
38182;SDS011;23991;52.430;10.586;2023-12-07T12:19:18;17.52;;;11.43;;
38182;SDS011;23991;52.430;10.586;2023-12-07T12:21:43;14.20;;;10.77;;
38182;SDS011;23991;52.430;10.586;2023-12-07T12:24:10;14.35;;;10.52;;
38182;SDS011;23991;52.430;10.586;2023-12-07T12:26:38;15.63;;;10.80;;
38182;SDS011;23991;52.430;10.586;2023-12-07T12:29:06;23.65;;;12.75;;
38182;SDS011;23991;52.430;10.586;2023-12-07T12:31:33;24.98;;;13.73;;
38182;SDS011;23991;52.430;10.586;2023-12-07T12:34:02;17.60;;;12.05;;
38182;SDS011;23991;52.430;10.586;2023-12-07T12:36:30;18.88;;;13.10;;
38182;SDS011;23991;52.430;10.586;2023-12-07T12:38:56;16.35;;;10.65;;
38182;SDS011;23991;52.430;10.586;2023-12-07T12:41:22;16.27;;;10.55;;
38182;SDS011;23991;52.430;10.586;2023-12-07T12:43:48;13.18;;;9.27;;
38182;SDS011;23991;52.430;10.586;2023-12-07T12:46:16;14.00;;;10.13;;
38182;SDS011;23991;52.430;10.586;2023-12-07T12:48:54;15.40;;;9.80;;
38182;SDS011;23991;52.430;10.586;2023-12-07T12:51:25;12.32;;;9.48;;
38182;SDS011;23991;52.430;10.586;2023-12-07T12:53:58;14.82;;;10.32;;
38182;SDS011;23991;52.430;10.586;2023-12-07T12:56:25;13.52;;;9.75;;
38182;SDS011;23991;52.430;10.586;2023-12-07T12:58:52;15.13;;;10.30;;
38182;SDS011;23991;52.430;10.586;2023-12-07T13:01:21;14.30;;;9.82;;
38182;SDS011;23991;52.430;10.586;2023-12-07T13:03:47;17.30;;;9.95;;
38182;SDS011;23991;52.430;10.586;2023-12-07T13:06:13;14.55;;;9.40;;
38182;SDS011;23991;52.430;10.586;2023-12-07T13:08:45;13.52;;;9.40;;
38182;SDS011;23991;52.430;10.586;2023-12-07T13:11:16;14.20;;;11.00;;
38182;SDS011;23991;52.430;10.586;2023-12-07T13:13:42;14.13;;;10.38;;
38182;SDS011;23991;52.430;10.586;2023-12-07T13:16:10;18.35;;;11.18;;
38182;SDS011;23991;52.430;10.586;2023-12-07T13:18:39;18.70;;;11.05;;
38182;SDS011;23991;52.430;10.586;2023-12-07T13:21:05;17.95;;;11.30;;
38182;SDS011;23991;52.430;10.586;2023-12-07T13:23:31;15.82;;;11.40;;
38182;SDS011;23991;52.430;10.586;2023-12-07T13:25:57;17.70;;;10.52;;
38182;SDS011;23991;52.430;10.586;2023-12-07T13:28:23;12.88;;;9.93;;
38182;SDS011;23991;52.430;10.586;2023-12-07T13:30:48;14.85;;;11.07;;
38182;SDS011;23991;52.430;10.586;2023-12-07T13:33:14;13.75;;;10.50;;
38182;SDS011;23991;52.430;10.586;2023-12-07T13:35:40;13.02;;;10.15;;
38182;SDS011;23991;52.430;10.586;2023-12-07T13:38:05;14.30;;;10.75;;
38182;SDS011;23991;52.430;10.586;2023-12-07T13:40:31;16.15;;;10.52;;
38182;SDS011;23991;52.430;10.586;2023-12-07T13:42:56;12.45;;;10.00;;
38182;SDS011;23991;52.430;10.586;2023-12-07T13:45:22;13.98;;;11.38;;
38182;SDS011;23991;52.430;10.586;2023-12-07T13:47:47;20.55;;;12.05;;
38182;SDS011;23991;52.430;10.586;2023-12-07T13:50:13;17.58;;;11.68;;
38182;SDS011;23991;52.430;10.586;2023-12-07T13:52:39;20.80;;;11.85;;
38182;SDS011;23991;52.430;10.586;2023-12-07T13:55:04;17.35;;;13.10;;
38182;SDS011;23991;52.430;10.586;2023-12-07T13:57:30;14.98;;;10.93;;
38182;SDS011;23991;52.430;10.586;2023-12-07T13:59:56;15.90;;;10.70;;
38182;SDS011;23991;52.430;10.586;2023-12-07T14:02:22;16.40;;;11.02;;
38182;SDS011;23991;52.430;10.586;2023-12-07T14:04:48;16.73;;;11.80;;
38182;SDS011;23991;52.430;10.586;2023-12-07T14:07:16;14.88;;;11.05;;
38182;SDS011;23991;52.430;10.586;2023-12-07T14:09:47;15.70;;;10.93;;
38182;SDS011;23991;52.430;10.586;2023-12-07T14:12:14;13.02;;;10.32;;
38182;SDS011;23991;52.430;10.586;2023-12-07T14:14:40;13.25;;;10.35;;
38182;SDS011;23991;52.430;10.586;2023-12-07T14:17:06;15.23;;;9.68;;